Varden, Mississippi
Current Conditions -  °F | °C
As of 9:53 AM on Friday 31 Oct 2014 (Local Time) from KTUP Reporting Station
Few Clouds Few Clouds  
Wind Chill: 56°   Ceiling: Unl
Heat Index: 56°   Visibility: 10mi
Dew Point: 49°   Wind: 10mph
Humidity: 77%   Direction: 20°NNE
Pressure: 30.04"   Gusts: NA
Location:  33.9472°N, 89.1968°W
Report Text: KTUP 311453Z 02009KT 10SM FEW100 13/09 A3004 RMK AO2 SLP169 T01330094 51021
Loading
Personal Weather Stations






























Interactive Weather Map
Tropical Storm Tracking
New forecast layout! Learn more

10-Day Weather Forecast

Advertisements
Track Severe Weather on mobile